Flight Track Log - Related Links

Times and Time Zones

All times are in EDT time to prevent confusion due to time zone crossing. See the TAM3132 flight status page for this flight to view local times or setup timezone preferences in your user account.

Time Position Orientation Groundspeed Altitude Reporting Facility
EDT Latitude Longitude Course Direction KTS MPH feet Rate Location/Type
Fri 11:50:23 AM -23.6250 -46.6590 102° East  Level FlightAware ADS-B
Fri 11:52:31 AM -23.6240 -46.6590 360° North 415 Level FlightAware ADS-B
Fri 11:52:55 AM -23.6230 -46.6600 318° Northwest 556 Level FlightAware ADS-B
Fri 11:53:44 AM -23.6210 -46.6610 335° Northwest 593 Level FlightAware ADS-B
Fri 11:56:00 AM -23.5026 -46.4227 62° Northeast  Level Estimated
Fri 11:57:00 AM -23.4503 -46.3177 61° Northeast  Level Estimated
Fri 11:57:37 AM -23.6200 -46.6610 61° Northeast  Level FlightAware ADS-B
Fri 11:58:03 AM -23.6210 -46.6600 138° Southeast 2,917 Level FlightAware ADS-B
Fri 11:58:23 AM -23.6270 -46.6560 149° Southeast 4,565 Level FlightAware ADS-B
Fri 11:58:49 AM -23.6480 -46.6410 147° Southeast 160 184 3,500 4,034 Climbing FlightAware ADS-B
Fri 11:59:21 AM -23.6710 -46.6240 146° Southeast 203 234 3,900 778 Climbing FlightAware ADS-B
Fri 11:59:43 AM -23.6900 -46.6100 146° Southeast 243 280 4,200 1,200 Climbing FlightAware ADS-B
Fri 12:00:01 PM -23.7040 -46.5910 129° Southeast 266 306 4,700 2,200 Climbing FlightAware ADS-B
Fri 12:00:13 PM -23.7060 -46.5750 98° East 269 310 5,300 2,372 Climbing FlightAware ADS-B
Fri 12:00:44 PM -23.6970 -46.5470 71° East 271 312 6,400 2,897 Climbing FlightAware ADS-B
Fri 12:01:11 PM -23.6750 -46.5030 61° Northeast 280 322 8,100 2,945 Climbing FlightAware ADS-B
Fri 12:01:39 PM -23.6590 -46.4660 65° Northeast 299 344 9,100 2,239 Climbing FlightAware ADS-B
Fri 12:02:18 PM -23.6380 -46.4110 67° East 312 359 10,600 2,780 Climbing FlightAware ADS-B
Fri 12:03:01 PM -23.6150 -46.3470 69° East 303 349 12,900 2,824 Climbing FlightAware ADS-B
Fri 12:03:43 PM -23.5940 -46.2860 69° East 306 352 14,600 2,122 Climbing FlightAware ADS-B
Fri 12:04:23 PM -23.5690 -46.2280 65° Northeast 326 375 15,800 1,841 Climbing FlightAware ADS-B
Fri 12:05:11 PM -23.5370 -46.1550 64° Northeast 342 394 17,300 1,636 Climbing FlightAware ADS-B
Fri 12:05:51 PM -23.5090 -46.0920 64° Northeast 359 413 18,200 1,463 Climbing FlightAware ADS-B
Fri 12:06:33 PM -23.4790 -46.0230 65° Northeast 371 427 19,300 1,229 Climbing FlightAware ADS-B
Fri 12:07:14 PM -23.4520 -45.9620 64° Northeast 391 450 19,900 1,500 Climbing FlightAware ADS-B
Fri 12:07:53 PM -23.4180 -45.8830 65° Northeast 398 458 21,300 1,953 Climbing FlightAware ADS-B
Fri 12:08:40 PM -23.3920 -45.7940 72° East 412 474 22,700 1,546 Climbing FlightAware ADS-B
Fri 12:09:30 PM -23.3830 -45.6880 85° East 422 486 23,800 1,137 Climbing FlightAware ADS-B
Fri 12:10:15 PM -23.3390 -45.6030 61° Northeast 434 499 24,500 1,116 Climbing FlightAware ADS-B
Fri 12:10:56 PM -23.2980 -45.5250 60° Northeast 445 512 25,400 772 Climbing FlightAware ADS-B
Fri 12:11:56 PM -23.2310 -45.4030 59° Northeast 484 557 25,800 540 Climbing FlightAware ADS-B
Fri 12:12:36 PM -23.1850 -45.3180 60° Northeast 495 570 26,300 750 Climbing FlightAware ADS-B
Fri 12:13:16 PM -23.1380 -45.2290 60° Northeast 519 597 26,800 847 Climbing FlightAware ADS-B
Fri 12:14:01 PM -23.0930 -45.1210 66° East 531 611 27,500 966 Climbing FlightAware ADS-B
Fri 12:14:43 PM -23.0650 -45.0190 73° East 541 623 28,200 681 Climbing FlightAware ADS-B
Fri 12:16:22 PM -23.0320 -44.8640 77° East 550 633 29,100 844 Climbing FlightAware ADS-B
Fri 12:16:58 PM -22.9870 -44.6600 77° East 564 649 30,100 1,394 Climbing FlightAware ADS-B
Fri 12:17:40 PM -22.9680 -44.5770 76° East 30,600 1,238 Climbing FlightAware ADS-B
Fri 12:18:01 PM -22.9450 -44.4730 77° East 564 649 31,400 1,158 Climbing FlightAware ADS-B
Fri 12:18:37 PM -22.9340 -44.4250 76° East 562 647 31,700 947 Climbing FlightAware ADS-B
Fri 12:19:17 PM -22.9090 -44.3150 76° East 559 643 32,600 1,263 Climbing FlightAware ADS-B
Fri 12:19:34 PM -22.8910 -44.2710 66° East 548 631 32,900 930 Climbing FlightAware ADS-B
Fri 12:20:28 PM -22.8180 -44.1520 56° Northeast 542 624 33,700 1,113 Climbing FlightAware ADS-B
Fri 12:21:11 PM -22.7320 -44.0140 56° Northeast 537 618 34,700 929 Climbing FlightAware ADS-B
Fri 12:21:52 PM -22.6760 -43.9240 56° Northeast 546 628 35,000 789 Climbing FlightAware ADS-B
Fri 12:22:27 PM -22.6230 -43.8380 56° Northeast 542 624 35,700 1,403 Climbing FlightAware ADS-B
Fri 12:23:09 PM -22.5650 -43.7440 56° Northeast 526 605 36,800 951 Climbing FlightAware ADS-B
Fri 12:23:49 PM -22.5110 -43.6570 56° Northeast 527 606 37,000 143 Climbing FlightAware ADS-B
Fri 12:24:33 PM -22.4510 -43.5620 56° Northeast 523 602 37,000  Level FlightAware ADS-B
Fri 12:25:11 PM -22.4000 -43.4800 56° Northeast 523 602 37,000  Level FlightAware ADS-B
Fri 12:26:14 PM -22.3630 -43.4200 56° Northeast 523 602 37,000  Level FlightAware ADS-B
Fri 12:26:57 PM -22.2570 -43.2520 56° Northeast 519 597 37,000  Level FlightAware ADS-B
Fri 12:27:33 PM -22.2070 -43.1730 56° Northeast 517 595 37,000  Level FlightAware ADS-B
Fri 12:28:17 PM -22.1480 -43.0790 56° Northeast 515 593 37,000  Level FlightAware ADS-B
Fri 12:29:03 PM -22.0870 -42.9820 56° Northeast 515 593 37,000  Level FlightAware ADS-B
Fri 12:29:38 PM -22.0410 -42.9090 56° Northeast 515 593 37,000  Level FlightAware ADS-B
Fri 12:30:25 PM -21.9840 -42.8190 56° Northeast 516 594 37,000  Level FlightAware ADS-B
Fri 12:30:59 PM -21.9310 -42.7370 55° Northeast 515 593 37,000  Level FlightAware ADS-B
Fri 12:31:27 PM -21.8930 -42.6770 56° Northeast 516 594 37,000  Level FlightAware ADS-B
Fri 12:32:10 PM -21.8360 -42.5860 56° Northeast 515 593 37,000  Level FlightAware ADS-B
Fri 12:32:51 PM -21.7810 -42.4990 56° Northeast 515 593 37,000  Level FlightAware ADS-B
Fri 12:33:35 PM -21.7210 -42.4050 56° Northeast 515 593 37,000  Level FlightAware ADS-B
Fri 12:34:17 PM -21.6640 -42.3170 55° Northeast 515 593 37,000  Level FlightAware ADS-B
Fri 12:34:57 PM -21.6100 -42.2320 56° Northeast 515 593 37,000  Level FlightAware ADS-B
Fri 12:35:34 PM -21.5850 -42.1930 55° Northeast 516 594 37,000  Level FlightAware ADS-B
Fri 12:36:21 PM -21.5220 -42.0940 56° Northeast 514 592 37,000 -1,034 Level FlightAware ADS-B
Fri 12:37:01 PM -21.4430 -41.9720 55° Northeast 501 577 35,500 -2,550 Descending FlightAware ADS-B
Fri 12:37:41 PM -21.3900 -41.8890 56° Northeast 508 585 33,600 -2,581 Descending FlightAware ADS-B
Fri 12:38:27 PM -21.3280 -41.7940 55° Northeast 505 581 31,800 -1,573 Descending FlightAware ADS-B
Fri 12:39:24 PM -21.2610 -41.6890 56° Northeast 497 572 30,900 -581 Descending FlightAware ADS-B
Fri 12:40:00 PM -21.2200 -41.6280 54° Northeast 497 572 30,900  Level FlightAware ADS-B
Fri 12:40:41 PM -21.1740 -41.5570 55° Northeast 497 572 30,900 -2,933 Level FlightAware ADS-B
Fri 12:41:09 PM -21.1580 -41.5310 57° Northeast 27,200 -5,388 Descending FlightAware ADS-B
Fri 12:41:30 PM -21.1310 -41.4890 55° Northeast 482 555 26,500 -1,367 Descending FlightAware ADS-B
Fri 12:42:28 PM -21.0590 -41.3790 55° Northeast 474 545 25,400 -1,871 Descending FlightAware ADS-B
Fri 12:43:03 PM -21.0130 -41.3080 55° Northeast 464 534 23,600 -2,338 Descending FlightAware ADS-B
Fri 12:43:45 PM -20.9630 -41.2310 55° Northeast 456 525 22,400 -1,829 Descending FlightAware ADS-B
Fri 12:44:25 PM -20.9100 -41.1500 55° Northeast 446 513 21,100 -1,753 Descending FlightAware ADS-B
Fri 12:45:14 PM -20.8570 -41.0680 55° Northeast 434 499 19,800 -1,030 Descending FlightAware ADS-B
Fri 12:46:04 PM -20.8030 -40.9860 55° Northeast 432 497 19,400 -1,671 Descending FlightAware ADS-B
Fri 12:46:33 PM -20.7630 -40.9260 55° Northeast 416 479 17,600 -2,451 Descending FlightAware ADS-B
Fri 12:47:15 PM -20.7190 -40.8580 55° Northeast 410 472 16,500 -1,500 Descending FlightAware ADS-B
Fri 12:47:57 PM -20.6720 -40.7930 52° Northeast 400 460 15,500 -1,551 Descending FlightAware ADS-B
Fri 12:48:44 PM -20.6110 -40.7240 47° Northeast 378 435 14,200 -1,310 Descending FlightAware ADS-B
Fri 12:49:24 PM -20.5580 -40.6800 38° Northeast 355 409 13,600 -1,037 Descending FlightAware ADS-B
Fri 12:50:05 PM -20.5100 -40.6420 37° Northeast 345 397 12,800 -1,231 Descending FlightAware ADS-B
Fri 12:50:42 PM -20.4640 -40.6040 38° Northeast 341 392 12,000 -1,432 Descending FlightAware ADS-B
Fri 12:51:33 PM -20.4000 -40.5530 37° Northeast 338 389 10,700 -1,326 Descending FlightAware ADS-B
Fri 12:52:08 PM -20.3570 -40.5180 37° Northeast 327 376 10,100 -985 Descending FlightAware ADS-B
Fri 12:52:40 PM -20.3220 -40.4900 37° Northeast 317 365 9,600 -1,161 Descending FlightAware ADS-B
Fri 12:53:10 PM -20.2830 -40.4580 38° Northeast 309 356 8,900 -1,429 Descending FlightAware ADS-B
Fri 12:53:22 PM -20.2700 -40.4480 36° Northeast 309 356 8,600 -1,538 Descending FlightAware ADS-B
Fri 12:53:49 PM -20.2390 -40.4230 37° Northeast 303 349 7,900 -1,538 Descending FlightAware ADS-B
Fri 12:54:01 PM -20.2260 -40.4120 38° Northeast 301 346 7,600 -1,286 Descending FlightAware ADS-B
Fri 12:54:31 PM -20.1970 -40.3890 37° Northeast 297 342 7,000 -1,300 Descending FlightAware ADS-B
Fri 12:55:01 PM -20.1630 -40.3610 38° Northeast 290 334 6,300 -1,500 Descending FlightAware ADS-B
Fri 12:55:43 PM -20.1210 -40.3280 36° Northeast 287 330 5,200 -1,455 Descending FlightAware ADS-B
Fri 12:56:07 PM -20.0950 -40.3070 37° Northeast 284 327 4,700 -1,333 Descending FlightAware ADS-B
Fri 12:56:37 PM -20.0640 -40.2820 37° Northeast 277 319 4,000 -1,143 Descending FlightAware ADS-B
Fri 12:56:49 PM -20.0530 -40.2660 54° Northeast 272 313 3,900 -581 Descending FlightAware ADS-B
Fri 12:57:08 PM -20.0540 -40.2400 92° East 250 288 3,700 -1,200 Descending FlightAware ADS-B
Fri 12:57:19 PM -20.0630 -40.2260 124° Southeast 247 284 3,300 -750 Descending FlightAware ADS-B
Fri 12:57:48 PM -20.0850 -40.2090 144° Southeast 227 261 3,200 -214 Descending FlightAware ADS-B
Fri 12:58:15 PM -20.1070 -40.1930 146° Southeast 200 230 3,100 -444 Descending FlightAware ADS-B
Fri 12:58:42 PM -20.1280 -40.2000 197° South 181 208 2,800 -808 Descending FlightAware ADS-B
Fri 12:59:07 PM -20.1440 -40.2110 213° Southwest 164 189 2,400 -750 Descending FlightAware ADS-B
Fri 12:59:38 PM -20.1570 -40.2210 216° Southwest 148 170 2,100 -762 Descending FlightAware ADS-B
Fri 01:00:10 PM -20.1810 -40.2370 212° Southwest 133 153 1,600 -824 Descending FlightAware ADS-B
Fri 01:00:29 PM -20.1890 -40.2410 205° Southwest 132 152 1,400 -585 Descending FlightAware ADS-B
Fri 01:00:51 PM -20.1990 -40.2480 213° Southwest 131 151 1,200 -600 Descending FlightAware ADS-B
Fri 01:01:19 PM -20.2110 -40.2560 212° Southwest 129 148 900 -529 Descending FlightAware ADS-B
Fri 01:01:25 PM -20.2130 -40.2570 205° Southwest 129 148 900 -732 Level FlightAware ADS-B
Fri 01:02:00 PM -20.2320 -40.2700 213° Southwest 132 152 400 -750 Descending FlightAware ADS-B
Fri 01:02:29 PM -20.2450 -40.2780 210° Southwest 132 152 100 -621 Descending FlightAware ADS-B
Fri 01:02:41 PM -20.2490 -40.2810 215° Southwest 132 152 -500 Descending FlightAware ADS-B
Fri 01:03:22 PM -20.2630 -40.2900 211° Southwest 127 146  Level FlightAware ADS-B
Fri 01:04:03 PM -20.2630 -40.2910 270° West 127 146  Level FlightAware ADS-B
Fri 01:04:34 PM -20.2620 -40.2910 360° North 127 146  Level FlightAware ADS-B
Fri 01:04:58 PM -20.2610 -40.2910 360° North 127 146  Level FlightAware ADS-B
Fri 01:05:30 PM -20.2590 -40.2900 25° Northeast 127 146  Level FlightAware ADS-B
Fri 01:05:55 PM -20.2580 -40.2890 43° Northeast 127 146  Level FlightAware ADS-B
Fri 01:06:13 PM -20.2580 -40.2880 90° East 127 146  Level FlightAware ADS-B
Fri 01:06:36 PM -20.2570 -40.2890 317° Northwest 127 146  Level FlightAware ADS-B
Fri 01:07:32 PM -20.2620 -40.2750 111° Southeast 127 146  Level FlightAware ADS-B
Fri 01:08:29 PM -20.2610 -40.2760 317° Northwest 127 146  Level FlightAware ADS-B
Fri 01:09:08 PM -20.2570 -40.2890 288° West 127 146  Level FlightAware ADS-B
Fri 01:09:35 PM -20.2620 -40.2750 111° Southeast 127 146  Level FlightAware ADS-B
Fri 01:12:00 PM -20.2581 -40.2864 290° West  Level Estimated
Fri 01:12:24 PM -20.2570 -40.2890 290° West 127 146  Level FlightAware ADS-B
Fri 01:13:21 PM -20.2620 -40.2750 111° Southeast 127 146  Level FlightAware ADS-B
Fri 01:14:02 PM -20.2570 -40.2890 291° West 127 146  Level FlightAware ADS-B
Fri 01:14:30 PM -20.2620 -40.2750 111° Southeast 127 146  Level FlightAware ADS-B
Fri 01:15:27 PM -20.2610 -40.2760 317° Northwest 127 146  Level FlightAware ADS-B
Fri 01:16:01 PM -20.2620 -40.2740 118° Southeast 127 146  Level FlightAware ADS-B
Fri 01:16:11 PM -20.2570 -40.2890 290° West 127 146  Level FlightAware ADS-B
Fri 01:16:37 PM -20.2610 -40.2760 108° East 127 146  Level FlightAware ADS-B
Fri 01:19:00 PM -20.2581 -40.2864 287° West  Level Estimated
Fri 01:20:00 PM -20.2581 -40.2864 13° North  Level Estimated
Fri 01:21:00 PM -20.2581 -40.2864 13° North  Level Estimated
Fri 01:22:00 PM -20.2581 -40.2864 13° North  Level Estimated
Fri 01:23:00 PM -20.2581 -40.2864 13° North  Level Estimated
Fri 01:24:00 PM -20.2581 -40.2864 13° North  Level Estimated
Fri 01:25:00 PM -20.2581 -40.2864 13° North  Level Estimated
Fri 01:26:00 PM -20.2581 -40.2864 13° North  Level Estimated

Login

Don't have an account? Register now (free) for customized features, flight alerts, and more!